Hollybrook, Louisiana
Current Conditions -  °F | °C
As of 9:53 AM on Sunday 25 Jan 2015 (Local Time) from KTVR Reporting Station
Clear Clear  
Wind Chill: 54°   Ceiling: Unl
Heat Index: 54°   Visibility: 10mi
Dew Point: 38°   Wind: 9mph
Humidity: 55%   Direction: 220°SW
Pressure: 29.9"   Gusts: 20mph
Location:  32.8408°N, 91.231°W
Report Text: KTVR 251553Z AUTO 22008G17KT 180V240 10SM CLR 12/03 A2990 RMK AO2 SLP130 T01220033
Loading
Personal Weather Stations






























Interactive Weather Map New forecast layout! Learn more

10-Day Weather Forecast

Advertisements
Track Severe Weather on mobile